createdAt,value
2023-01-09T00:01:49.705Z,1.45
2023-01-09T00:04:18.612Z,2.03
2023-01-09T00:06:53.974Z,1.80
2023-01-09T00:09:23.094Z,1.55
2023-01-09T00:11:52.227Z,1.60
2023-01-09T00:14:23.118Z,1.50
2023-01-09T00:16:51.780Z,1.65
2023-01-09T00:19:20.184Z,1.40
2023-01-09T00:21:50.050Z,1.33
2023-01-09T00:24:18.370Z,1.50
2023-01-09T00:26:46.692Z,1.60
2023-01-09T00:29:15.648Z,1.50
2023-01-09T00:31:43.925Z,1.73
2023-01-09T00:34:12.570Z,1.75
2023-01-09T00:36:40.948Z,1.60
2023-01-09T00:39:10.710Z,1.73
2023-01-09T00:41:43.304Z,1.85
2023-01-09T00:44:16.275Z,1.73
2023-01-09T00:46:55.821Z,1.98
2023-01-09T00:49:25.930Z,1.80
2023-01-09T00:51:56.218Z,1.60
2023-01-09T00:54:26.994Z,1.80
2023-01-09T00:56:56.239Z,2.17
2023-01-09T00:59:24.695Z,2.08
2023-01-09T01:01:53.182Z,1.80
2023-01-09T01:04:50.588Z,2.17
2023-01-09T01:07:36.477Z,2.60
2023-01-09T01:10:08.951Z,2.28
2023-01-09T01:12:37.505Z,2.53
2023-01-09T01:15:07.921Z,2.67
2023-01-09T01:17:38.033Z,2.55
2023-01-09T01:20:10.944Z,2.53
2023-01-09T01:22:42.327Z,3.13
2023-01-09T01:25:13.525Z,2.10
2023-01-09T01:27:42.467Z,2.63
2023-01-09T01:30:13.641Z,2.80
2023-01-09T01:32:42.328Z,2.40
2023-01-09T01:35:12.557Z,2.92
2023-01-09T01:37:41.986Z,3.20
2023-01-09T01:40:13.847Z,3.00
2023-01-09T01:42:48.272Z,2.53
2023-01-09T01:45:19.733Z,2.97
2023-01-09T01:47:55.081Z,3.30
2023-01-09T01:50:31.396Z,2.90
2023-01-09T01:53:08.897Z,3.20
2023-01-09T01:55:43.484Z,2.80
2023-01-09T01:58:15.554Z,2.95
2023-01-09T02:00:48.284Z,3.17
2023-01-09T02:03:20.314Z,3.55
2023-01-09T02:05:48.739Z,3.55
2023-01-09T02:08:17.458Z,4.00
2023-01-09T02:10:48.292Z,3.17
2023-01-09T02:13:17.208Z,3.35
2023-01-09T02:16:14.173Z,3.63
2023-01-09T02:18:52.033Z,3.78
2023-01-09T02:21:37.932Z,3.60
2023-01-09T02:24:43.845Z,4.15
2023-01-09T02:27:32.786Z,3.72
2023-01-09T02:30:31.559Z,4.00
2023-01-09T02:33:33.669Z,3.70
2023-01-09T02:36:19.049Z,2.97
2023-01-09T02:39:07.503Z,3.05
2023-01-09T02:41:44.943Z,2.70
2023-01-09T02:44:19.380Z,3.25
2023-01-09T02:46:49.491Z,3.17
2023-01-09T02:49:18.778Z,2.92
2023-01-09T02:51:53.948Z,2.25
2023-01-09T02:54:32.768Z,2.80
2023-01-09T02:57:20.125Z,3.15
2023-01-09T03:00:05.941Z,2.78
2023-01-09T03:02:47.556Z,2.67
2023-01-09T03:05:24.714Z,3.17
2023-01-09T03:08:01.058Z,2.70
2023-01-09T03:10:38.011Z,2.97
2023-01-09T03:13:11.837Z,3.33
2023-01-09T03:15:43.684Z,3.03
2023-01-09T03:18:17.401Z,3.60
2023-01-09T03:20:45.949Z,3.10
2023-01-09T03:23:16.968Z,3.35
2023-01-09T03:25:45.325Z,3.92
2023-01-09T03:28:27.492Z,3.78
2023-01-09T03:30:55.922Z,3.60
2023-01-09T03:33:25.967Z,3.20
2023-01-09T03:35:54.392Z,3.35
2023-01-09T03:38:22.767Z,3.25
2023-01-09T03:40:51.393Z,3.20
2023-01-09T03:43:19.693Z,3.22
2023-01-09T03:45:48.121Z,4.03
2023-01-09T03:48:16.548Z,3.05
2023-01-09T03:50:47.427Z,2.90
2023-01-09T03:53:15.897Z,3.42
2023-01-09T03:55:47.576Z,3.15
2023-01-09T03:58:17.113Z,2.90
2023-01-09T04:00:48.871Z,2.90
2023-01-09T04:03:19.701Z,2.63
2023-01-09T04:05:50.581Z,2.88
2023-01-09T04:08:19.563Z,2.92
2023-01-09T04:10:48.696Z,3.20
2023-01-09T04:13:17.134Z,2.92
2023-01-09T04:15:45.825Z,3.05
2023-01-09T04:18:17.752Z,2.95
2023-01-09T04:20:50.194Z,2.75
2023-01-09T04:23:18.624Z,3.08
2023-01-09T04:25:47.688Z,2.80
2023-01-09T04:28:16.094Z,2.80
2023-01-09T04:30:44.483Z,2.42
2023-01-09T04:33:13.077Z,2.70
2023-01-09T04:35:41.494Z,2.78
2023-01-09T04:38:11.313Z,2.60
2023-01-09T04:40:40.303Z,2.67
2023-01-09T04:43:08.647Z,2.72
2023-01-09T04:45:37.027Z,2.63
2023-01-09T04:48:06.359Z,2.90
2023-01-09T04:50:34.777Z,2.97
2023-01-09T04:53:03.145Z,2.40
2023-01-09T04:55:33.013Z,2.60
2023-01-09T04:58:01.625Z,2.28
2023-01-09T05:00:31.126Z,2.65
2023-01-09T05:02:59.697Z,2.67
2023-01-09T05:05:28.020Z,2.33
2023-01-09T05:07:56.341Z,2.25
2023-01-09T05:10:25.504Z,2.17
2023-01-09T05:12:55.241Z,2.15
2023-01-09T05:15:23.845Z,2.30
2023-01-09T05:17:52.465Z,2.13
2023-01-09T05:20:20.794Z,2.20
2023-01-09T05:22:49.057Z,2.78
2023-01-09T05:25:17.624Z,2.08
2023-01-09T05:27:46.732Z,2.60
2023-01-09T05:30:18.371Z,2.50
2023-01-09T05:32:46.941Z,2.78
2023-01-09T05:35:20.179Z,2.97
2023-01-09T05:37:49.175Z,2.65
2023-01-09T05:40:18.053Z,2.55
2023-01-09T05:42:46.593Z,3.00
2023-01-09T05:45:16.614Z,2.60
2023-01-09T05:47:46.409Z,2.88
2023-01-09T05:50:16.247Z,3.03
2023-01-09T05:52:44.474Z,2.80
2023-01-09T05:55:26.288Z,2.58
2023-01-09T05:57:54.563Z,3.10
2023-01-09T06:00:25.276Z,3.35
2023-01-09T06:02:53.723Z,2.78
2023-01-09T06:05:22.532Z,3.30
2023-01-09T06:07:50.900Z,3.42
2023-01-09T06:10:19.584Z,3.20
2023-01-09T06:12:50.599Z,3.30
2023-01-09T06:15:20.630Z,3.67
2023-01-09T06:17:53.441Z,3.55
2023-01-09T06:20:22.279Z,3.20
2023-01-09T06:22:52.080Z,3.55
2023-01-09T06:25:20.602Z,3.13
2023-01-09T06:27:49.172Z,3.08
2023-01-09T06:30:18.360Z,2.80
2023-01-09T06:32:48.125Z,2.40
2023-01-09T06:35:20.995Z,2.65
2023-01-09T06:37:49.872Z,2.83
2023-01-09T06:40:21.127Z,3.10
2023-01-09T06:42:50.544Z,3.10
2023-01-09T06:45:18.896Z,2.90
2023-01-09T06:47:47.381Z,3.67
2023-01-09T06:50:18.421Z,3.65
2023-01-09T06:52:46.725Z,3.40
2023-01-09T06:55:16.752Z,3.35
2023-01-09T06:57:45.189Z,2.90
2023-01-09T07:00:14.748Z,3.22
2023-01-09T07:02:43.115Z,2.75
2023-01-09T07:05:12.413Z,2.60
2023-01-09T07:07:42.791Z,2.35
2023-01-09T07:10:12.761Z,1.80
2023-01-09T07:12:41.089Z,1.30
2023-01-09T07:15:10.629Z,1.08
2023-01-09T07:17:39.178Z,1.25
2023-01-09T07:20:09.164Z,1.13
2023-01-09T07:22:37.679Z,1.50
2023-01-09T07:25:08.428Z,1.50
2023-01-09T07:27:37.500Z,1.52
2023-01-09T07:30:08.553Z,2.13
2023-01-09T07:32:38.527Z,1.63
2023-01-09T07:35:08.718Z,1.77
2023-01-09T07:37:37.034Z,2.00
2023-01-09T07:40:08.955Z,1.67
2023-01-09T07:42:37.410Z,1.25
2023-01-09T07:45:07.636Z,1.63
2023-01-09T07:47:36.313Z,1.55
2023-01-09T07:50:05.081Z,1.90
2023-01-09T07:52:33.410Z,1.80
2023-01-09T07:55:02.236Z,1.27
2023-01-09T07:57:32.327Z,1.58
2023-01-09T08:00:03.392Z,1.33
2023-01-09T08:02:31.935Z,2.03
2023-01-09T08:05:00.395Z,2.08
2023-01-09T08:07:28.690Z,1.80
2023-01-09T08:09:57.167Z,1.80
2023-01-09T08:12:26.019Z,2.00
2023-01-09T08:14:55.826Z,1.52
2023-01-09T08:17:26.486Z,1.73
2023-01-09T08:19:54.964Z,1.40
2023-01-09T08:22:23.353Z,1.65
2023-01-09T08:24:51.758Z,1.60
2023-01-09T08:27:20.089Z,1.75
2023-01-09T08:29:48.320Z,1.98
2023-01-09T08:32:18.175Z,1.52
2023-01-09T08:34:46.750Z,1.50
2023-01-09T08:37:15.133Z,1.90
2023-01-09T08:39:43.627Z,1.90
2023-01-09T08:42:29.526Z,1.60
2023-01-09T08:45:15.452Z,1.80
2023-01-09T08:47:45.281Z,2.15
2023-01-09T08:50:13.656Z,2.70
2023-01-09T08:52:42.057Z,1.95
2023-01-09T08:55:10.977Z,2.28
2023-01-09T08:57:39.445Z,2.13
2023-01-09T09:00:11.061Z,2.65
2023-01-09T09:02:39.552Z,2.25
2023-01-09T09:05:10.899Z,2.35
2023-01-09T09:07:39.652Z,2.22
2023-01-09T09:10:09.079Z,2.60
2023-01-09T09:12:37.576Z,1.63
2023-01-09T09:15:24.174Z,1.70
2023-01-09T09:17:54.698Z,1.75
2023-01-09T09:20:26.716Z,1.40
2023-01-09T09:22:55.410Z,2.05
2023-01-09T09:25:24.792Z,1.77
2023-01-09T09:27:53.408Z,1.73
2023-01-09T09:30:22.476Z,1.70
2023-01-09T09:32:50.987Z,1.60
2023-01-09T09:35:21.143Z,1.33
2023-01-09T09:38:06.523Z,1.92
2023-01-09T09:41:33.647Z,1.65
2023-01-09T09:44:43.782Z,3.05
2023-01-09T09:47:35.693Z,1.70
2023-01-09T09:50:28.139Z,2.30
2023-01-09T09:53:03.266Z,1.63
2023-01-09T09:55:36.107Z,1.38
2023-01-09T09:58:11.322Z,1.98
2023-01-09T10:00:40.244Z,2.20
2023-01-09T10:03:18.365Z,2.63
2023-01-09T10:05:52.243Z,2.38
2023-01-09T10:08:36.061Z,1.83
2023-01-09T10:11:15.134Z,2.10
2023-01-09T10:14:01.890Z,1.85
2023-01-09T10:16:49.904Z,1.90
2023-01-09T10:19:33.685Z,1.20
2023-01-09T10:22:13.922Z,1.67
2023-01-09T10:25:03.225Z,1.60
2023-01-09T10:28:00.319Z,1.60
2023-01-09T10:30:40.426Z,1.35
2023-01-09T10:33:26.298Z,2.20
2023-01-09T10:36:25.099Z,1.77
2023-01-09T10:38:58.159Z,2.78
2023-01-09T10:41:32.790Z,1.88
2023-01-09T10:44:13.177Z,2.78
2023-01-09T10:46:48.948Z,2.40
2023-01-09T10:49:19.339Z,2.53
2023-01-09T10:51:51.176Z,3.08
2023-01-09T10:54:23.823Z,2.35
2023-01-09T10:56:57.370Z,2.28
2023-01-09T10:59:30.196Z,2.15
2023-01-09T11:01:58.820Z,2.50
2023-01-09T11:04:32.394Z,2.45
2023-01-09T11:07:04.080Z,2.58
2023-01-09T11:09:56.873Z,2.75
2023-01-09T11:12:27.837Z,2.88
2023-01-09T11:14:58.405Z,2.78
2023-01-09T11:17:28.652Z,2.40
2023-01-09T11:20:05.525Z,2.83
2023-01-09T11:22:47.442Z,2.40
2023-01-09T11:25:18.585Z,2.70
2023-01-09T11:28:08.240Z,2.13
2023-01-09T11:30:39.092Z,2.75
2023-01-09T11:33:17.557Z,2.50
2023-01-09T11:36:02.259Z,2.72
2023-01-09T11:38:32.100Z,2.00
2023-01-09T11:41:03.218Z,2.72
2023-01-09T11:43:37.778Z,2.28
2023-01-09T11:46:11.680Z,2.30
2023-01-09T11:48:50.416Z,2.55
2023-01-09T11:51:22.832Z,2.90
2023-01-09T11:54:20.948Z,2.67
2023-01-09T11:56:50.759Z,2.17
2023-01-09T11:59:22.083Z,2.45
2023-01-09T12:02:53.716Z,3.00
2023-01-09T12:05:37.859Z,2.70
2023-01-09T12:08:19.806Z,2.53
2023-01-09T12:11:28.523Z,2.33
2023-01-09T12:14:21.193Z,2.13
2023-01-09T12:17:06.590Z,2.85
2023-01-09T12:20:09.069Z,2.75
2023-01-09T12:22:47.120Z,2.70
2023-01-09T12:25:29.285Z,2.67
2023-01-09T12:28:21.167Z,3.10
2023-01-09T12:31:04.233Z,2.92
2023-01-09T12:33:41.546Z,1.98
2023-01-09T12:36:22.922Z,2.40
2023-01-09T12:38:57.467Z,2.15
2023-01-09T12:41:52.599Z,2.55
2023-01-09T12:44:47.532Z,2.30
2023-01-09T12:47:45.181Z,2.65
2023-01-09T12:50:39.724Z,2.28
2023-01-09T12:53:18.340Z,2.03
2023-01-09T12:55:54.493Z,1.90
2023-01-09T12:58:38.932Z,2.05
2023-01-09T13:01:15.153Z,2.03
2023-01-09T13:03:50.485Z,2.55
2023-01-09T13:06:20.737Z,2.50
2023-01-09T13:08:58.316Z,2.58
2023-01-09T13:11:35.909Z,2.47
2023-01-09T13:14:11.004Z,2.72
2023-01-09T13:16:45.443Z,2.17
2023-01-09T13:19:18.612Z,2.42
2023-01-09T13:21:47.290Z,2.30
2023-01-09T13:24:21.129Z,2.67
2023-01-09T13:26:56.173Z,2.53
2023-01-09T13:29:28.722Z,2.53
2023-01-09T13:32:18.363Z,2.65
2023-01-09T13:34:49.337Z,2.65
2023-01-09T13:37:24.963Z,2.20
2023-01-09T13:39:59.014Z,2.17
2023-01-09T13:42:46.339Z,2.25
2023-01-09T13:45:25.710Z,2.40
2023-01-09T13:48:26.575Z,2.65
2023-01-09T13:51:59.482Z,2.97
2023-01-09T13:55:25.959Z,2.90
2023-01-09T13:58:26.442Z,2.10
2023-01-09T14:01:04.721Z,3.03
2023-01-09T14:03:37.020Z,2.78
2023-01-09T14:06:19.224Z,2.10
2023-01-09T14:08:51.469Z,2.38
2023-01-09T14:11:27.452Z,2.38
2023-01-09T14:14:17.300Z,3.20
2023-01-09T14:16:46.323Z,2.33
2023-01-09T14:19:42.128Z,2.78
2023-01-09T14:22:27.197Z,2.20
2023-01-09T14:24:57.082Z,2.72
2023-01-09T14:28:20.259Z,2.78
2023-01-09T14:31:12.685Z,2.75
2023-01-09T14:33:41.194Z,2.97
2023-01-09T14:36:21.915Z,2.60
2023-01-09T14:38:54.448Z,3.67
2023-01-09T14:41:46.437Z,3.55
2023-01-09T14:44:29.999Z,3.33
2023-01-09T14:47:01.870Z,2.70
2023-01-09T14:49:36.163Z,2.22
2023-01-09T14:52:11.766Z,2.63
2023-01-09T14:54:44.198Z,2.90
2023-01-09T14:57:28.012Z,2.47
2023-01-09T15:00:00.032Z,2.65
2023-01-09T15:02:32.511Z,2.35
2023-01-09T15:05:06.551Z,2.60
2023-01-09T15:07:41.156Z,2.83
2023-01-09T15:10:17.924Z,2.63
2023-01-09T15:12:48.285Z,3.53
2023-01-09T15:15:20.546Z,2.70
2023-01-09T15:17:56.851Z,2.53
2023-01-09T15:20:28.970Z,2.50
2023-01-09T15:23:00.750Z,2.55
2023-01-09T15:25:38.480Z,2.50
2023-01-09T15:28:32.204Z,2.22
2023-01-09T15:31:07.398Z,2.42
2023-01-09T15:33:36.757Z,2.45
2023-01-09T15:36:15.052Z,2.80
2023-01-09T15:38:44.356Z,2.33
2023-01-09T15:41:38.792Z,2.33
2023-01-09T15:44:14.495Z,1.80
2023-01-09T15:46:46.804Z,2.13
2023-01-09T15:49:15.856Z,1.95
2023-01-09T15:51:47.695Z,1.88
2023-01-09T15:54:18.658Z,1.83
2023-01-09T15:56:47.567Z,1.75
2023-01-09T15:59:27.298Z,2.13
2023-01-09T16:02:20.243Z,2.30
2023-01-09T16:04:48.852Z,2.22
2023-01-09T16:07:20.598Z,1.95
2023-01-09T16:09:52.822Z,2.97
2023-01-09T16:12:24.898Z,2.55
2023-01-09T16:14:56.795Z,1.88
2023-01-09T16:17:29.910Z,2.00
2023-01-09T16:20:00.677Z,2.17
2023-01-09T16:22:30.640Z,2.30
2023-01-09T16:25:01.112Z,2.45
2023-01-09T16:27:33.242Z,2.10
2023-01-09T16:30:03.048Z,2.30
2023-01-09T16:32:35.962Z,1.90
2023-01-09T16:35:08.879Z,2.00
2023-01-09T16:37:37.630Z,2.25
2023-01-09T16:40:32.312Z,2.15
2023-01-09T16:43:01.569Z,2.03
2023-01-09T16:45:33.857Z,1.90
2023-01-09T16:48:07.657Z,2.40
2023-01-09T16:50:36.866Z,2.38
2023-01-09T16:53:16.809Z,3.47
2023-01-09T16:55:45.420Z,2.75
2023-01-09T16:58:18.521Z,3.00
2023-01-09T17:00:48.024Z,4.00
2023-01-09T17:03:20.182Z,3.17
2023-01-09T17:05:52.401Z,3.30
2023-01-09T17:08:26.487Z,3.47
2023-01-09T17:10:57.399Z,4.50
2023-01-09T17:13:26.653Z,4.22
2023-01-09T17:15:56.459Z,5.40
2023-01-09T17:18:29.647Z,5.40
2023-01-09T17:20:59.927Z,4.30
2023-01-09T17:23:28.842Z,3.45
2023-01-09T17:26:18.355Z,4.18
2023-01-09T17:28:50.759Z,3.20
2023-01-09T17:31:19.757Z,3.08
2023-01-09T17:33:49.973Z,3.53
2023-01-09T17:36:28.072Z,4.85
2023-01-09T17:38:56.547Z,4.22
2023-01-09T17:41:27.403Z,3.65
2023-01-09T17:43:56.331Z,3.65
2023-01-09T17:46:29.269Z,2.92
2023-01-09T17:48:59.561Z,4.20
2023-01-09T17:51:29.401Z,3.00
2023-01-09T17:53:58.165Z,3.53
2023-01-09T17:56:29.768Z,3.35
2023-01-09T17:58:58.480Z,2.95
2023-01-09T18:01:27.093Z,3.63
2023-01-09T18:03:55.663Z,3.75
2023-01-09T18:06:25.751Z,3.63
2023-01-09T18:08:55.229Z,3.97
2023-01-09T18:11:25.248Z,4.68
2023-01-09T18:13:54.790Z,3.53
2023-01-09T18:16:26.635Z,4.05
2023-01-09T18:18:57.673Z,3.50
2023-01-09T18:21:32.802Z,3.90
2023-01-09T18:24:03.041Z,3.72
2023-01-09T18:26:31.438Z,3.42
2023-01-09T18:29:01.337Z,4.07
2023-01-09T18:31:31.617Z,3.47
2023-01-09T18:34:02.568Z,3.30
2023-01-09T18:36:33.867Z,3.95
2023-01-09T18:39:05.635Z,3.22
2023-01-09T18:41:34.225Z,3.83
2023-01-09T18:44:03.307Z,4.03
2023-01-09T18:46:32.445Z,3.35
2023-01-09T18:49:03.108Z,4.53
2023-01-09T18:51:35.988Z,3.92
2023-01-09T18:54:04.735Z,5.47
2023-01-09T18:56:33.662Z,4.82
2023-01-09T18:59:02.146Z,4.70
2023-01-09T19:01:31.393Z,5.05
2023-01-09T19:04:01.188Z,5.40
2023-01-09T19:06:30.860Z,4.50
2023-01-09T19:09:01.131Z,4.28
2023-01-09T19:11:29.595Z,4.40
2023-01-09T19:13:58.011Z,4.25
2023-01-09T19:16:26.601Z,5.05
2023-01-09T19:18:55.038Z,4.53
2023-01-09T19:21:26.820Z,3.80
2023-01-09T19:23:55.753Z,3.58
2023-01-09T19:26:28.094Z,3.80
2023-01-09T19:28:57.722Z,3.63
2023-01-09T19:31:28.753Z,3.15
2023-01-09T19:33:58.610Z,4.00
2023-01-09T19:36:27.411Z,3.65
2023-01-09T19:38:58.195Z,3.63
2023-01-09T19:41:29.184Z,3.80
2023-01-09T19:43:57.840Z,3.55
2023-01-09T19:46:27.497Z,3.53
2023-01-09T19:48:58.918Z,3.75
2023-01-09T19:51:27.365Z,3.38
2023-01-09T19:56:30.930Z,3.35
2023-01-09T19:59:01.922Z,3.50
2023-01-09T20:01:33.031Z,3.33
2023-01-09T20:04:06.951Z,2.80
2023-01-09T20:06:39.238Z,3.05
2023-01-09T20:09:07.873Z,2.88
2023-01-09T20:11:40.069Z,2.78
2023-01-09T20:14:08.756Z,3.00
2023-01-09T20:16:37.282Z,3.90
2023-01-09T20:19:07.549Z,3.00
2023-01-09T20:21:37.008Z,3.60
2023-01-09T20:24:54.788Z,2.95
2023-01-09T20:26:58.335Z,2.78
2023-01-09T20:29:26.734Z,3.70
2023-01-09T20:31:56.019Z,3.30
2023-01-09T20:34:26.085Z,3.47
2023-01-09T20:36:55.219Z,3.35
2023-01-09T20:39:23.894Z,3.40
2023-01-09T20:41:52.296Z,2.83
2023-01-09T20:44:25.112Z,3.85
2023-01-09T20:46:53.681Z,3.47
2023-01-09T20:49:22.269Z,2.95
2023-01-09T20:51:55.822Z,2.63
2023-01-09T20:54:24.996Z,2.72
2023-01-09T20:56:53.737Z,2.70
2023-01-09T20:59:23.721Z,2.90
2023-01-09T21:01:52.435Z,2.63
2023-01-09T21:04:24.125Z,2.33
2023-01-09T21:06:52.364Z,2.03
2023-01-09T21:09:21.134Z,2.50
2023-01-09T21:11:49.486Z,2.83
2023-01-09T21:14:17.997Z,3.25
2023-01-09T21:16:54.623Z,3.22
2023-01-09T21:19:23.956Z,3.17
2023-01-09T21:21:53.424Z,4.00
2023-01-09T21:24:21.995Z,3.63
2023-01-09T21:26:50.380Z,2.97
2023-01-09T21:29:18.659Z,2.90
2023-01-09T21:31:48.570Z,3.25
2023-01-09T21:34:20.573Z,2.35
2023-01-09T21:36:49.101Z,2.50
2023-01-09T21:39:19.115Z,2.38
2023-01-09T21:42:05.163Z,2.63
2023-01-09T21:44:51.208Z,2.95
2023-01-09T21:47:20.912Z,2.75
2023-01-09T21:49:49.407Z,2.97
2023-01-09T21:52:18.541Z,2.83
2023-01-09T21:54:46.825Z,3.30
2023-01-09T21:57:15.299Z,2.88
2023-01-09T21:59:43.630Z,3.33
2023-01-09T22:02:13.951Z,2.90
2023-01-09T22:04:48.350Z,2.67
2023-01-09T22:07:16.819Z,3.08
2023-01-09T22:09:45.995Z,3.25
2023-01-09T22:12:14.771Z,2.53
2023-01-09T22:14:43.106Z,2.92
2023-01-09T22:17:11.389Z,3.42
2023-01-09T22:19:39.666Z,2.50
2023-01-09T22:22:09.442Z,2.45
2023-01-09T22:24:37.867Z,3.00
2023-01-09T22:27:06.380Z,3.55
2023-01-09T22:29:34.738Z,2.92
2023-01-09T22:32:03.141Z,2.75
2023-01-09T22:34:31.837Z,2.38
2023-01-09T22:37:00.289Z,3.22
2023-01-09T22:39:29.942Z,3.53
2023-01-09T22:41:59.168Z,3.55
2023-01-09T22:44:27.563Z,3.35
2023-01-09T22:46:57.405Z,3.40
2023-01-09T22:49:29.976Z,2.90
2023-01-09T22:51:58.777Z,3.47
2023-01-09T22:54:27.148Z,3.65
2023-01-09T22:56:56.844Z,3.03
2023-01-09T22:59:27.276Z,2.55
2023-01-09T23:01:56.842Z,2.95
2023-01-09T23:04:25.404Z,2.75
2023-01-09T23:06:53.696Z,3.55
2023-01-09T23:09:21.994Z,2.60
2023-01-09T23:12:06.117Z,3.15
2023-01-09T23:14:38.780Z,2.40
2023-01-09T23:17:11.262Z,2.65
2023-01-09T23:19:40.492Z,2.70
2023-01-09T23:22:09.487Z,3.35
2023-01-09T23:24:37.846Z,2.53
2023-01-09T23:27:07.478Z,2.72
2023-01-09T23:29:38.727Z,2.25
2023-01-09T23:32:08.361Z,2.58
2023-01-09T23:34:36.947Z,2.30
2023-01-09T23:37:09.038Z,2.38
2023-01-09T23:39:37.709Z,2.85
2023-01-09T23:42:23.777Z,2.22
2023-01-09T23:44:53.879Z,2.90
2023-01-09T23:47:22.481Z,3.33
2023-01-09T23:49:50.758Z,2.88
2023-01-09T23:52:19.103Z,2.97
2023-01-09T23:54:47.445Z,2.85
2023-01-09T23:57:15.735Z,2.92
2023-01-09T23:59:44.189Z,2.40
